Onondaga Nation, New York
Current Conditions -  °F | °C
As of 1:54 AM on Thursday 23 Oct 2014 (Local Time) from KSYR Reporting Station
Light Rain Light Rain  
Wind Chill: 43°   Ceiling: 13000
Heat Index: 46°   Visibility: 10mi
Dew Point: 40°   Wind: 6mph
Humidity: 79%   Direction: 290°WNW
Pressure: 30.03"   Gusts: NA
Location:  42.9377°N, 76.1727°W
Report Text: KSYR 230554Z 29005KT 10SM -RA SCT075 BKN130 BKN160 08/04 A3003 RMK AO2 RAB52 SLP166 BKN160 V OVC P0000 60005 T00780044 10094 20072 56020
Loading
Personal Weather Stations






























Interactive Weather Map
Tropical Storm Tracking
New forecast layout! Learn more

10-Day Weather Forecast

Advertisements
Track Severe Weather on mobile